CheckWX is a tool to help pilots better visualize weather data.  It is not intended as a substitute for an official pre-flight weather briefing.

05:14:47 UTC

KBYS METAR
Bicycle Lake AAF Airport
Fort Irwin/Barstow, California, USA
Current

20 mins ago

KBYS 240455Z AUTO 00000KT 10SM CLR 05/M04 A3028 RMK AO2 SLP281 WND DATA ESTMD T00461041
Observed
Feb-24 @ 04:55 UTC
Visibility
10 SM
Flight Rules
VFR
Cloud Levels
  • Clear skies
Temperature
C / 41°F
Dewpoint
-4°C / 25°F
Humidity
53%
Altimeter
30.28" Hg
Pressure
1028.1 hPa
Previous

1 hour ago

KBYS 240355Z AUTO 00000KT 10SM FEW200 06/M06 A3026 RMK AO2 SLP278 WND DATA ESTMD T00561056
Observed
Feb-24 @ 03:55 UTC
Visibility
10 SM
Flight Rules
VFR
Cloud Levels
  • Few at 20,000' AGL
Temperature
C / 43°F
Dewpoint
-6°C / 21°F
Humidity
42%
Altimeter
30.26" Hg
Pressure
1027.8 hPa
Previous

2 hours ago

KBYS 240255Z AUTO 09003KT 10SM CLR 08/M08 A3025 RMK AO2 SLP276 WND DATA ESTMD T00801076 53002
Observed
Feb-24 @ 02:55 UTC
Wind
  • 090° at 3 KTS
Visibility
10 SM
Flight Rules
VFR
Cloud Levels
  • Clear skies
Temperature
C / 46°F
Dewpoint
-8°C / 18°F
Humidity
32%
Altimeter
30.25" Hg
Pressure
1027.6 hPa